Time;durP1;ratioP1;P1;durP2;ratioP2;P2;SDS_P1;SDS_P2;PMS_P1;PMS_P2;Temp;Humidity;BMP_temperature;BMP_pressure;BME280_temperature;BME280_humidity;BME280_pressure;Samples;Min_cycle;Max_cycle;Signal;HPM_P1;HPM_P2
2021/01/09 00:02:13;;;;;;;27.27;13.82;;;;;;;-2.51;100.00;102051.16;5023795;28;20061;-63
2021/01/09 00:04:40;;;;;;;24.13;14.13;;;;;;;-2.55;100.00;102053.84;5020688;28;20046;-64
2021/01/09 00:07:06;;;;;;;23.60;14.00;;;;;;;-2.64;100.00;102054.88;5019530;28;20060;-63
2021/01/09 00:09:32;;;;;;;21.58;13.25;;;;;;;-2.56;100.00;102058.28;5023705;28;20054;-63
2021/01/09 00:11:59;;;;;;;24.83;14.00;;;;;;;-2.59;100.00;102053.03;5022612;28;20049;-64
2021/01/09 00:14:25;;;;;;;24.05;14.18;;;;;;;-2.57;100.00;102055.66;5022224;28;20042;-63
2021/01/09 00:16:51;;;;;;;26.98;15.55;;;;;;;-2.61;100.00;102056.59;5021894;28;20074;-64
2021/01/09 00:19:17;;;;;;;23.48;12.48;;;;;;;-2.58;100.00;102049.50;5022024;28;20042;-63
2021/01/09 00:21:44;;;;;;;27.13;13.90;;;;;;;-2.57;100.00;102050.38;5023100;28;20053;-64
2021/01/09 00:24:11;;;;;;;22.35;12.98;;;;;;;-2.64;100.00;102060.13;5020505;28;20053;-64
2021/01/09 00:26:38;;;;;;;23.42;13.57;;;;;;;-2.68;100.00;102061.06;5022106;28;20054;-64
2021/01/09 00:29:05;;;;;;;23.25;12.82;;;;;;;-2.69;100.00;102057.56;5019920;28;20157;-64
2021/01/09 00:31:31;;;;;;;25.58;13.35;;;;;;;-2.57;100.00;102064.44;5023063;28;20104;-64
2021/01/09 00:33:57;;;;;;;24.23;13.55;;;;;;;-2.58;100.00;102067.09;5023845;28;20414;-64
2021/01/09 00:36:23;;;;;;;21.10;13.20;;;;;;;-2.66;100.00;102062.78;5022732;28;20045;-64
2021/01/09 00:38:50;;;;;;;19.45;11.73;;;;;;;-2.62;100.00;102075.94;5022539;28;20100;-64
2021/01/09 00:41:25;;;;;;;21.70;12.93;;;;;;;-2.59;100.00;102068.88;5021896;28;20418;-64
2021/01/09 00:43:51;;;;;;;21.17;12.18;;;;;;;-2.65;100.00;102071.56;5021725;28;20060;-64
2021/01/09 00:46:17;;;;;;;18.27;11.75;;;;;;;-2.56;100.00;102068.81;5023277;28;20046;-63
2021/01/09 00:48:43;;;;;;;20.00;12.18;;;;;;;-2.62;100.00;102075.94;5021699;28;20057;-64
2021/01/09 00:51:12;;;;;;;21.40;12.85;;;;;;;-2.82;100.00;102067.41;5022959;28;20112;-63
2021/01/09 00:53:37;;;;;;;20.23;12.68;;;;;;;-2.76;100.00;102076.13;5021688;28;20071;-64
2021/01/09 00:56:05;;;;;;;24.80;13.30;;;;;;;-2.78;100.00;102072.63;5021790;28;20053;-64
2021/01/09 00:58:31;;;;;;;24.88;15.40;;;;;;;-2.83;100.00;102075.31;5023031;28;20060;-64
2021/01/09 01:00:57;;;;;;;24.35;13.55;;;;;;;-2.84;100.00;102076.25;5022562;28;20053;-64
2021/01/09 01:03:23;;;;;;;24.63;13.80;;;;;;;-2.92;100.00;102081.59;5021458;28;20514;-63
2021/01/09 01:05:49;;;;;;;23.75;13.35;;;;;;;-2.82;100.00;102077.06;5022087;28;20041;-64
2021/01/09 01:08:15;;;;;;;21.80;13.13;;;;;;;-2.83;100.00;102086.75;5020837;28;20108;-64
2021/01/09 01:10:41;;;;;;;19.95;12.43;;;;;;;-2.84;100.00;102095.53;5022919;28;20084;-64
2021/01/09 01:13:07;;;;;;;19.83;12.70;;;;;;;-2.93;100.00;102098.31;5021775;28;20056;-64
2021/01/09 01:15:33;;;;;;;19.50;12.20;;;;;;;-2.89;100.00;102093.84;5021909;28;20065;-64
2021/01/09 01:18:00;;;;;;;20.35;12.68;;;;;;;-2.84;100.00;102092.03;5021331;28;20080;-64
2021/01/09 01:20:26;;;;;;;19.50;12.90;;;;;;;-2.83;100.00;102105.19;5022511;28;20045;-64
2021/01/09 01:22:52;;;;;;;25.00;14.00;;;;;;;-2.90;100.00;102106.16;5022418;28;20037;-64
2021/01/09 01:25:18;;;;;;;22.45;13.07;;;;;;;-2.91;100.00;102098.28;5021040;28;20041;-64
2021/01/09 01:27:44;;;;;;;23.67;14.13;;;;;;;-2.94;100.00;102107.09;5021265;28;20054;-63
2021/01/09 01:30:12;;;;;;;29.55;15.77;;;;;;;-2.93;100.00;102113.22;5021593;28;20053;-64
2021/01/09 01:32:38;;;;;;;22.77;13.90;;;;;;;-2.85;100.00;102111.38;5018847;28;20057;-63
2021/01/09 01:35:05;;;;;;;22.80;12.95;;;;;;;-2.71;100.00;102119.09;5020663;28;20051;-64
2021/01/09 01:37:31;;;;;;;25.00;13.85;;;;;;;-2.69;100.00;102118.19;5020663;28;20058;-63
2021/01/09 01:39:57;;;;;;;20.10;12.88;;;;;;;-2.75;100.00;102120.00;5021686;28;20128;-64
2021/01/09 01:42:23;;;;;;;21.67;13.15;;;;;;;-2.82;100.00;102120.09;5020505;28;20085;-63
2021/01/09 01:44:49;;;;;;;22.58;14.25;;;;;;;-2.76;100.00;102128.81;5019405;28;20497;-64
2021/01/09 01:47:20;;;;;;;22.42;13.00;;;;;;;-2.76;100.00;102134.09;5019469;28;20072;-64
2021/01/09 01:49:47;;;;;;;25.73;14.73;;;;;;;-2.83;100.00;102130.66;5020417;28;20103;-63
2021/01/09 01:52:13;;;;;;;20.65;12.93;;;;;;;-2.74;100.00;102140.22;5020169;28;20054;-63
2021/01/09 01:54:39;;;;;;;25.42;14.55;;;;;;;-2.77;100.00;102142.88;5018474;28;20045;-64
2021/01/09 01:57:08;;;;;;;26.00;15.85;;;;;;;-2.76;100.00;102136.72;5022292;28;20057;-64
2021/01/09 01:59:34;;;;;;;25.58;15.00;;;;;;;-2.73;100.00;102140.19;5069207;22;20094;-64
2021/01/09 02:02:04;;;;;;;24.25;14.25;;;;;;;-2.73;100.00;102132.28;5057113;22;20057;-64
2021/01/09 02:04:30;;;;;;;32.80;16.92;;;;;;;-2.79;100.00;102132.38;5040773;28;20045;-64
2021/01/09 02:06:59;;;;;;;28.00;15.30;;;;;;;-2.90;100.00;102129.88;5041237;28;20091;-63
2021/01/09 02:09:30;;;;;;;33.67;18.42;;;;;;;-2.89;100.00;102128.09;5039862;28;20072;-64
2021/01/09 02:12:05;;;;;;;34.83;19.73;;;;;;;-2.98;100.00;102131.72;5039825;28;20044;-65
2021/01/09 02:14:38;;;;;;;27.15;16.38;;;;;;;-2.99;100.00;102135.22;5039860;28;20135;-65
2021/01/09 02:17:06;;;;;;;36.38;18.63;;;;;;;-3.05;100.00;102135.31;5040322;28;20067;-63
2021/01/09 02:19:35;;;;;;;30.83;17.52;;;;;;;-3.08;100.00;102144.09;5040503;28;20107;-64
2021/01/09 02:22:04;;;;;;;37.00;18.50;;;;;;;-3.03;100.00;102142.31;5040560;28;20056;-64
2021/01/09 02:24:31;;;;;;;33.63;18.45;;;;;;;-2.99;100.00;102148.41;5038336;28;20041;-63
2021/01/09 02:26:57;;;;;;;28.13;16.83;;;;;;;-2.96;100.00;102145.72;5041074;28;20045;-64
2021/01/09 02:29:24;;;;;;;28.10;16.48;;;;;;;-3.01;100.00;102144.91;5040368;28;20052;-64
2021/01/09 02:32:00;;;;;;;35.90;18.15;;;;;;;-3.08;100.00;102141.47;5041157;28;20136;-65
2021/01/09 02:34:30;;;;;;;31.08;16.83;;;;;;;-3.14;100.00;102148.59;5039748;28;20042;-65
2021/01/09 02:36:58;;;;;;;27.73;16.13;;;;;;;-3.10;100.00;102153.78;5041087;28;20065;-64
2021/01/09 02:42:17;;;;;;;30.20;17.27;;;;;;;-3.10;100.00;102156.44;5043704;23;20128;-64
2021/01/09 02:44:44;;;;;;;27.25;16.75;;;;;;;-3.13;100.00;102150.34;5037528;28;20049;-65
2021/01/09 02:47:10;;;;;;;24.50;14.90;;;;;;;-3.13;100.00;102151.19;5039492;28;20487;-64
2021/01/09 02:49:36;;;;;;;29.55;15.73;;;;;;;-3.17;100.00;102152.97;5039209;28;20084;-65
2021/01/09 02:52:02;;;;;;;26.70;16.73;;;;;;;-3.24;100.00;102153.97;5039735;28;20053;-64
2021/01/09 02:54:28;;;;;;;23.45;14.50;;;;;;;-3.19;100.00;102157.41;5040816;28;20560;-65
2021/01/09 02:56:54;;;;;;;28.58;15.77;;;;;;;-3.08;100.00;102148.50;5039471;28;20072;-64
2021/01/09 02:59:21;;;;;;;24.92;14.32;;;;;;;-3.14;100.00;102156.47;5038793;28;20501;-64
2021/01/09 03:01:48;;;;;;;25.23;13.82;;;;;;;-3.22;100.00;102164.47;5040977;28;20056;-64
2021/01/09 03:04:14;;;;;;;24.98;13.50;;;;;;;-3.23;100.00;102153.03;5038898;28;20050;-64
2021/01/09 03:06:40;;;;;;;25.08;14.00;;;;;;;-3.25;100.00;102157.47;5040354;28;20099;-65
2021/01/09 03:09:06;;;;;;;26.67;15.00;;;;;;;-3.35;100.00;102161.06;5040105;28;20383;-65
2021/01/09 03:11:32;;;;;;;24.08;14.50;;;;;;;-3.40;100.00;102157.59;5039673;28;20076;-65
2021/01/09 03:13:58;;;;;;;23.02;13.52;;;;;;;-3.41;100.00;102163.78;5032224;28;20084;-65
2021/01/09 03:16:24;;;;;;;25.13;14.70;;;;;;;-3.39;100.00;102159.34;5040031;28;20049;-64
2021/01/09 03:18:50;;;;;;;21.90;12.88;;;;;;;-3.40;100.00;102154.97;5040822;28;20045;-64
2021/01/09 03:21:16;;;;;;;23.10;12.90;;;;;;;-3.39;100.00;102159.34;5040213;28;20060;-63
2021/01/09 03:23:42;;;;;;;23.08;14.18;;;;;;;-3.34;100.00;102157.56;5041431;28;20541;-63
2021/01/09 03:26:08;;;;;;;27.75;14.90;;;;;;;-3.41;100.00;102161.16;5038798;28;20037;-64
2021/01/09 03:28:34;;;;;;;26.25;14.88;;;;;;;-3.49;100.00;102171.72;5038858;28;20130;-64
2021/01/09 03:31:00;;;;;;;25.27;14.60;;;;;;;-3.43;100.00;102165.53;5039136;28;20061;-64
2021/01/09 03:33:29;;;;;;;25.80;14.77;;;;;;;-3.47;100.00;102161.22;5039338;28;20045;-63
2021/01/09 03:35:55;;;;;;;21.70;13.38;;;;;;;-3.51;100.00;102165.59;5040260;28;20048;-65
2021/01/09 03:38:21;;;;;;;23.38;14.30;;;;;;;-3.52;100.00;102159.47;5039560;28;20049;-64
2021/01/09 03:40:47;;;;;;;26.08;14.50;;;;;;;-3.49;100.00;102163.81;5039914;28;20048;-65
2021/01/09 03:43:13;;;;;;;26.15;14.82;;;;;;;-3.52;100.00;102167.38;5039436;28;20057;-64
2021/01/09 03:45:38;;;;;;;28.73;15.43;;;;;;;-3.50;100.00;102158.56;5039244;28;20060;-65
2021/01/09 03:48:05;;;;;;;23.73;14.73;;;;;;;-3.47;100.00;102161.22;5039311;28;20194;-64
2021/01/09 03:50:32;;;;;;;25.38;13.50;;;;;;;-3.46;100.00;102166.47;5038894;28;20056;-65
2021/01/09 03:52:58;;;;;;;23.88;14.32;;;;;;;-3.47;100.00;102161.22;5039361;28;20061;-63
2021/01/09 03:55:24;;;;;;;25.67;14.18;;;;;;;-3.43;100.00;102163.78;5038864;28;20548;-64
2021/01/09 03:57:50;;;;;;;23.92;14.13;;;;;;;-3.49;100.00;102173.50;5032724;28;20053;-64
2021/01/09 04:00:16;;;;;;;24.63;15.43;;;;;;;-3.47;100.00;102161.22;5039990;28;20482;-65
2021/01/09 04:02:42;;;;;;;21.95;13.20;;;;;;;-3.35;100.00;102168.97;5035803;28;20053;-64
2021/01/09 04:05:10;;;;;;;23.63;13.80;;;;;;;-3.23;100.00;102165.34;5041847;28;20106;-64
2021/01/09 04:07:37;;;;;;;23.30;14.90;;;;;;;-3.20;100.00;102174.06;5043141;28;20071;-64
2021/01/09 04:10:05;;;;;;;23.40;13.55;;;;;;;-3.13;100.00;102181.94;5043630;28;20378;-64
2021/01/09 04:12:31;;;;;;;20.08;13.27;;;;;;;-3.03;100.00;102180.97;5043187;28;20044;-64
2021/01/09 04:14:57;;;;;;;24.02;14.45;;;;;;;-2.94;100.00;102178.22;5035038;28;20048;-64
2021/01/09 04:17:23;;;;;;;23.83;14.07;;;;;;;-2.91;100.00;102172.91;5042921;28;20083;-65
2021/01/09 04:19:49;;;;;;;24.90;13.85;;;;;;;-2.85;100.00;102180.72;5042682;28;20048;-64
2021/01/09 04:22:15;;;;;;;23.10;14.05;;;;;;;-2.79;100.00;102171.88;5042355;28;20559;-65
2021/01/09 04:24:42;;;;;;;27.55;14.55;;;;;;;-2.67;100.00;102160.31;5042525;28;20045;-65
2021/01/09 04:27:08;;;;;;;24.65;15.13;;;;;;;-2.64;100.00;102170.81;5043402;28;20045;-64
2021/01/09 04:29:34;;;;;;;25.35;16.85;;;;;;;-2.56;100.00;102168.09;5041021;28;20111;-66
2021/01/09 04:31:59;;;;;;;27.88;15.90;;;;;;;-2.44;100.00;102167.94;5034368;28;20440;-64
2021/01/09 04:34:26;;;;;;;23.70;14.65;;;;;;;-2.47;100.00;102168.84;5040953;28;20052;-63
2021/01/09 04:36:53;;;;;;;23.17;13.98;;;;;;;-2.38;100.00;102173.13;5042499;28;20096;-65
2021/01/09 04:39:20;;;;;;;28.23;15.00;;;;;;;-2.19;100.00;102173.75;5043592;28;20055;-64
2021/01/09 04:41:47;;;;;;;28.48;15.82;;;;;;;-2.21;100.00;102174.66;5042617;28;20064;-66
2021/01/09 04:44:13;;;;;;;25.42;15.10;;;;;;;-2.25;100.00;102178.22;5041024;28;20050;-64
2021/01/09 04:46:46;;;;;;;23.73;15.05;;;;;;;-2.24;100.00;102174.72;5041565;28;20053;-64
2021/01/09 04:49:12;;;;;;;25.40;16.23;;;;;;;-2.22;100.00;102179.06;5043058;28;20057;-65
2021/01/09 04:51:41;;;;;;;21.80;14.35;;;;;;;-2.29;100.00;102180.06;5042436;28;20045;-64
2021/01/09 04:54:10;;;;;;;21.80;13.88;;;;;;;-2.13;100.00;102186.84;5040984;28;20091;-65
2021/01/09 04:56:36;;;;;;;23.63;14.15;;;;;;;-2.13;100.00;102189.47;5041455;28;20057;-65
2021/01/09 04:59:04;;;;;;;27.88;15.18;;;;;;;-2.17;100.00;102190.41;5042292;28;20052;-65
2021/01/09 05:01:30;;;;;;;25.17;14.95;;;;;;;-2.17;100.00;102190.41;5040861;28;20045;-64
2021/01/09 05:03:57;;;;;;;24.58;14.93;;;;;;;-2.13;100.00;102200.03;5041164;28;20068;-64
2021/01/09 05:06:23;;;;;;;27.33;16.13;;;;;;;-2.23;100.00;102198.41;5041946;28;20049;-63
2021/01/09 05:08:49;;;;;;;27.33;15.77;;;;;;;-2.26;100.00;102197.59;5042365;28;20044;-64
2021/01/09 05:11:16;;;;;;;30.23;17.00;;;;;;;-2.22;100.00;102191.38;5041708;28;20041;-65
2021/01/09 05:13:43;;;;;;;29.38;16.10;;;;;;;-2.13;100.00;102194.75;5041670;28;20056;-65
2021/01/09 05:16:10;;;;;;;29.80;17.02;;;;;;;-2.18;100.00;102196.59;5041292;28;20052;-64
2021/01/09 05:18:37;;;;;;;28.15;15.48;;;;;;;-2.13;100.00;102197.41;5042797;28;20045;-64
2021/01/09 05:21:05;;;;;;;28.38;15.30;;;;;;;-2.22;100.00;102197.53;5039984;28;20123;-64
2021/01/09 05:23:49;;;;;;;27.80;15.30;;;;;;;-2.27;100.00;102196.72;5041155;28;20061;-65
2021/01/09 05:26:15;;;;;;;29.20;15.52;;;;;;;-2.23;100.00;102203.69;5033326;28;20048;-64
2021/01/09 05:28:44;;;;;;;24.98;14.52;;;;;;;-2.20;100.00;102203.66;5039806;28;20108;-65
2021/01/09 05:31:11;;;;;;;21.33;12.63;;;;;;;-2.27;100.00;102203.75;5040985;28;20056;-65
2021/01/09 05:33:37;;;;;;;22.13;13.50;;;;;;;-2.42;100.00;102202.19;5041274;28;20111;-64
2021/01/09 05:36:04;;;;;;;22.02;14.18;;;;;;;-2.50;100.00;102204.94;5039796;28;20049;-65
2021/01/09 05:38:35;;;;;;;26.35;13.50;;;;;;;-2.62;100.00;102211.25;5042272;28;20405;-64
2021/01/09 05:41:05;;;;;;;25.85;13.70;;;;;;;-2.68;100.00;102219.19;5048415;28;20048;-65
2021/01/09 05:43:31;;;;;;;22.13;13.50;;;;;;;-2.76;100.00;102215.78;5060504;28;20055;-65
2021/01/09 05:45:57;;;;;;;24.85;13.65;;;;;;;-2.85;100.00;102220.25;5060386;28;20036;-65
2021/01/09 05:48:25;;;;;;;25.70;13.55;;;;;;;-2.83;100.00;102214.97;5058373;28;20060;-65
2021/01/09 05:50:52;;;;;;;24.95;13.98;;;;;;;-2.82;100.00;102222.00;5058668;28;20048;-65
2021/01/09 05:53:37;;;;;;;23.58;13.13;;;;;;;-2.94;100.00;102215.09;5060164;28;20551;-65
2021/01/09 05:56:03;;;;;;;23.38;13.23;;;;;;;-2.91;100.00;102220.31;5060768;28;20405;-65
2021/01/09 05:58:29;;;;;;;22.02;12.77;;;;;;;-2.98;100.00;102226.53;5061189;28;20044;-64
2021/01/09 06:00:57;;;;;;;22.48;12.27;;;;;;;-2.95;100.00;102223.00;5060066;28;20049;-65
2021/01/09 06:03:37;;;;;;;24.73;13.77;;;;;;;-3.00;100.00;102225.69;5059107;28;20118;-65
2021/01/09 06:06:08;;;;;;;27.50;13.98;;;;;;;-2.97;100.00;102220.41;5060346;28;20049;-65
2021/01/09 06:08:37;;;;;;;27.08;15.60;;;;;;;-2.98;100.00;102226.53;5060077;28;20056;-65
2021/01/09 06:11:09;;;;;;;26.85;14.93;;;;;;;-2.91;100.00;102228.22;5058313;28;20041;-65
2021/01/09 06:13:35;;;;;;;26.33;14.20;;;;;;;-2.83;100.00;102242.22;5059283;28;20041;-64
2021/01/09 06:16:05;;;;;;;21.25;13.05;;;;;;;-2.69;100.00;102251.72;5059371;28;20048;-64
2021/01/09 06:18:32;;;;;;;26.40;14.27;;;;;;;-2.46;100.00;102254.06;5059587;28;20053;-65
2021/01/09 06:21:00;;;;;;;25.15;13.98;;;;;;;-2.47;100.00;102250.59;5060215;28;20048;-65
2021/01/09 06:23:26;;;;;;;22.42;14.32;;;;;;;-2.47;100.00;102258.50;5057638;28;20056;-65
2021/01/09 06:25:52;;;;;;;23.80;13.77;;;;;;;-2.42;100.00;102239.13;5059773;28;20052;-65
2021/01/09 06:28:23;;;;;;;31.27;16.60;;;;;;;-2.47;100.00;102245.31;5059712;28;20070;-65
2021/01/09 06:30:54;;;;;;;24.20;13.77;;;;;;;-2.44;100.00;102248.78;5060579;28;20064;-64
2021/01/09 06:36:13;;;;;;;25.75;14.75;;;;;;;-2.41;100.00;102243.50;4984324;22;20057;-64
2021/01/09 06:38:41;;;;;;;26.48;14.95;;;;;;;-2.30;100.00;102233.66;5040870;28;20052;-65
2021/01/09 06:41:10;;;;;;;26.40;14.55;;;;;;;-2.17;100.00;102243.16;5040012;28;20056;-65
2021/01/09 06:43:36;;;;;;;;;;;;;;;-2.40;100.00;102237.31;5040985;28;20175;-65
2021/01/09 06:46:07;;;;;;;27.08;14.95;;;;;;;-2.38;100.00;102241.69;5039289;28;20339;-65
2021/01/09 06:48:35;;;;;;;21.92;14.05;;;;;;;-2.28;100.00;102239.81;5041736;28;20045;-64
2021/01/09 06:51:01;;;;;;;23.65;14.88;;;;;;;-2.30;100.00;102233.66;5039499;28;20060;-65
2021/01/09 06:53:28;;;;;;;27.05;16.17;;;;;;;-2.35;100.00;102235.50;5039525;28;20037;-64
2021/01/09 06:55:55;;;;;;;27.95;15.93;;;;;;;-2.37;100.00;102243.44;5039817;28;20053;-65
2021/01/09 06:58:28;;;;;;;27.50;15.85;;;;;;;-2.32;100.00;102246.03;5039990;28;20093;-65
2021/01/09 07:01:21;;;;;;;30.48;15.07;;;;;;;-2.29;100.00;102252.13;5038418;28;20049;-64
2021/01/09 07:03:47;;;;;;;24.33;14.65;;;;;;;-2.16;100.00;102257.25;5038159;28;20159;-65
2021/01/09 07:06:13;;;;;;;25.48;13.55;;;;;;;-2.09;100.00;102263.31;5039485;28;20049;-65
2021/01/09 07:08:43;;;;;;;24.98;13.95;;;;;;;-1.97;100.00;102258.75;5041107;28;20053;-65
2021/01/09 07:11:11;;;;;;;20.63;13.52;;;;;;;-2.06;100.00;102263.25;5039686;28;20127;-63
2021/01/09 07:13:39;;;;;;;19.67;12.20;;;;;;;-1.97;100.00;102265.78;5063164;22;20084;-65
2021/01/09 07:16:09;;;;;;;20.80;13.13;;;;;;;-1.90;100.00;102270.06;5039639;28;20102;-64
2021/01/09 07:18:41;;;;;;;23.35;13.52;;;;;;;-1.91;100.00;102263.06;5039465;28;20052;-65
2021/01/09 07:21:08;;;;;;;22.60;13.52;;;;;;;-1.85;100.00;102260.34;5036901;28;20056;-64
2021/01/09 07:23:34;;;;;;;23.63;13.80;;;;;;;-2.00;100.00;102256.16;5038290;28;20054;-64
2021/01/09 07:26:03;;;;;;;21.05;13.75;;;;;;;-2.02;100.00;102263.19;5039730;28;20068;-65
2021/01/09 07:28:33;;;;;;;27.57;15.63;;;;;;;-1.90;100.00;102254.22;5039110;28;20049;-65
2021/01/09 07:31:02;;;;;;;25.58;14.27;;;;;;;-1.86;100.00;102271.78;5037798;28;20056;-65
2021/01/09 07:33:30;;;;;;;25.08;13.80;;;;;;;-1.76;100.00;102283.09;5036837;28;20447;-64
2021/01/09 07:35:57;;;;;;;28.95;16.10;;;;;;;-1.76;100.00;102286.59;5041682;28;20115;-65
2021/01/09 07:38:23;;;;;;;28.00;14.35;;;;;;;-1.70;100.00;102287.41;5043201;28;20057;-64
2021/01/09 07:40:55;;;;;;;23.58;14.25;;;;;;;-1.77;100.00;102284.88;5044574;28;20041;-65
2021/01/09 07:43:35;;;;;;;32.88;15.02;;;;;;;-1.79;100.00;102289.28;5041826;28;20057;-64
2021/01/09 07:46:02;;;;;;;21.75;13.60;;;;;;;-1.69;100.00;102289.13;5043529;28;20052;-64
2021/01/09 07:48:32;;;;;;;24.55;13.20;;;;;;;-1.70;100.00;102301.47;5042862;28;20049;-65
2021/01/09 07:50:58;;;;;;;24.45;13.48;;;;;;;-1.83;100.00;102287.56;5041527;28;20084;-65
2021/01/09 07:53:27;;;;;;;22.65;13.15;;;;;;;-1.83;100.00;102298.13;5042006;28;20045;-64
2021/01/09 07:55:54;;;;;;;22.00;12.75;;;;;;;-1.91;100.00;102300.00;5041149;28;20126;-64
2021/01/09 07:58:43;;;;;;;23.02;12.68;;;;;;;-2.00;100.00;102289.59;5042072;28;20498;-64
2021/01/09 08:01:09;;;;;;;28.77;13.13;;;;;;;-1.97;100.00;102292.19;5041672;28;20490;-64
2021/01/09 08:03:37;;;;;;;23.27;13.13;;;;;;;-2.04;100.00;102299.28;5040529;28;20056;-64
2021/01/09 08:06:03;;;;;;;20.50;12.70;;;;;;;-2.11;100.00;102297.63;5042249;28;20060;-65
2021/01/09 08:08:30;;;;;;;21.67;12.23;;;;;;;-2.17;100.00;102306.47;5042399;28;20510;-64
2021/01/09 08:10:56;;;;;;;21.17;13.13;;;;;;;-2.13;100.00;102305.56;5043325;28;20049;-63
2021/01/09 08:13:22;;;;;;;20.10;11.85;;;;;;;-2.03;100.00;102305.44;5042003;28;20084;-64
2021/01/09 08:15:50;;;;;;;17.75;12.30;;;;;;;-1.97;100.00;102311.50;5038624;28;20513;-64
2021/01/09 08:18:16;;;;;;;17.38;10.80;;;;;;;-1.88;100.00;102315.81;5040715;28;20049;-65
2021/01/09 08:20:42;;;;;;;23.98;12.65;;;;;;;-1.92;100.00;102308.81;5041708;28;20049;-64
2021/01/09 08:23:08;;;;;;;21.20;13.65;;;;;;;-1.99;100.00;102317.69;5042732;28;20099;-65
2021/01/09 08:25:37;;;;;;;24.48;13.50;;;;;;;-1.95;100.00;102315.00;5041339;28;20926;-63
2021/01/09 08:28:04;;;;;;;20.15;13.20;;;;;;;-1.88;100.00;102326.34;5041077;28;20124;-65
2021/01/09 08:30:32;;;;;;;26.95;14.82;;;;;;;-1.70;100.00;102325.22;5041291;28;20056;-65
2021/01/09 08:33:03;;;;;;;30.02;16.50;;;;;;;-1.62;100.00;102322.47;5040330;28;20044;-65
2021/01/09 08:35:30;;;;;;;24.83;15.35;;;;;;;-1.52;100.00;102328.50;5040988;28;20041;-64
2021/01/09 08:37:56;;;;;;;30.38;17.05;;;;;;;-1.45;100.00;102331.03;5042419;28;20049;-65
2021/01/09 08:40:25;;;;;;;27.60;16.52;;;;;;;-1.40;100.00;102333.59;5039840;28;20049;-64
2021/01/09 08:42:55;;;;;;;29.10;16.02;;;;;;;-1.34;100.00;102330.00;5041383;28;20049;-65
2021/01/09 08:45:44;;;;;;;31.75;16.20;;;;;;;-1.16;100.00;102337.66;5041097;28;20057;-64
2021/01/09 08:48:14;;;;;;;26.77;16.15;;;;;;;-1.07;100.00;102340.13;5041199;28;20543;-63
2021/01/09 08:50:46;;;;;;;25.08;15.00;;;;;;;-0.87;100.00;102338.91;5042042;28;20046;-63
2021/01/09 08:53:12;;;;;;;24.42;15.10;;;;;;;-0.72;100.00;102343.09;5040137;28;20472;-64
2021/01/09 08:55:39;;;;;;;25.70;15.82;;;;;;;-0.77;100.00;102339.66;5040341;28;20505;-64
2021/01/09 08:58:13;;;;;;;25.40;14.98;;;;;;;-0.74;100.00;102339.59;5039775;28;20114;-64
2021/01/09 09:00:39;;;;;;;21.55;14.15;;;;;;;-0.67;100.00;102350.94;5041712;28;20053;-64
2021/01/09 09:03:07;;;;;;;26.30;14.65;;;;;;;-0.66;100.00;102344.75;5041257;28;20045;-64
2021/01/09 09:05:35;;;;;;;22.50;12.73;;;;;;;-0.63;100.00;102344.69;5040485;28;20056;-64
2021/01/09 09:08:04;;;;;;;23.83;13.73;;;;;;;-0.55;100.00;102348.06;5040698;28;20106;-64
2021/01/09 09:10:31;;;;;;;18.93;12.00;;;;;;;-0.43;100.00;102353.13;5040804;28;20045;-63
2021/01/09 09:13:16;;;;;;;19.27;11.48;;;;;;;-0.39;100.00;102359.25;5040536;28;21897;-64
2021/01/09 09:15:42;;;;;;;17.83;11.52;;;;;;;-0.31;100.00;102360.00;5040586;28;20076;-64
2021/01/09 09:18:09;;;;;;;19.70;11.75;;;;;;;-0.29;100.00;102360.81;5039011;28;20057;-64
2021/01/09 09:20:37;;;;;;;17.50;11.45;;;;;;;-0.27;100.00;102361.66;5040848;28;20056;-64
2021/01/09 09:23:22;;;;;;;21.63;11.80;;;;;;;-0.20;100.00;102367.72;5038892;28;20052;-64
2021/01/09 09:26:09;;;;;;;16.10;9.73;;;;;;;-0.24;100.00;102368.66;5039570;28;20049;-64
2021/01/09 09:28:49;;;;;;;14.00;9.48;;;;;;;-0.09;100.00;102376.31;5039903;28;20049;-64
2021/01/09 09:31:26;;;;;;;20.27;10.32;;;;;;;-0.02;100.00;102374.41;5041377;28;20052;-64
2021/01/09 09:34:10;;;;;;;18.65;10.20;;;;;;;0.04;100.00;102381.38;5038897;28;20494;-64
2021/01/09 09:36:39;;;;;;;20.60;10.20;;;;;;;-0.08;100.00;102372.75;5040442;28;20053;-64
2021/01/09 09:39:13;;;;;;;14.83;9.90;;;;;;;0.02;99.97;102377.88;5039989;28;20495;-64
2021/01/09 09:41:53;;;;;;;14.52;9.93;;;;;;;0.08;99.96;102377.75;5038875;28;20048;-64
2021/01/09 09:44:19;;;;;;;20.75;9.82;;;;;;;0.08;100.00;102368.03;5039353;28;20135;-64
2021/01/09 09:46:46;;;;;;;20.20;10.25;;;;;;;0.11;99.97;102365.31;5041271;28;20041;-64
2021/01/09 09:49:12;;;;;;;16.02;9.93;;;;;;;0.12;99.68;102374.16;5039470;28;20049;-64
2021/01/09 09:51:38;;;;;;;17.63;9.93;;;;;;;0.15;99.96;102376.72;5036984;28;20506;-64
2021/01/09 09:54:05;;;;;;;17.75;9.63;;;;;;;0.16;99.73;102371.41;5039217;28;20045;-64
2021/01/09 09:56:36;;;;;;;18.67;11.27;;;;;;;0.02;99.90;102369.94;5041627;28;20079;-65
2021/01/09 09:59:04;;;;;;;20.02;11.80;;;;;;;0.06;100.00;102368.97;5036711;28;20049;-64
2021/01/09 10:01:30;;;;;;;18.95;12.63;;;;;;;0.10;99.98;102368.84;5037885;28;20076;-64
2021/01/09 10:03:56;;;;;;;19.13;11.20;;;;;;;0.10;100.00;102370.66;5036729;28;20131;-65
2021/01/09 10:06:23;;;;;;;21.13;11.02;;;;;;;-0.06;99.97;102373.63;5040320;28;21206;-64
2021/01/09 10:08:49;;;;;;;21.25;11.85;;;;;;;-0.10;99.69;102374.56;5039087;28;20049;-64
2021/01/09 10:11:15;;;;;;;23.45;12.63;;;;;;;-0.09;100.00;102371.03;5037778;28;20091;-64
2021/01/09 10:16:38;;;;;;;15.85;11.25;;;;;;;0.01;99.90;102376.13;5041053;23;20056;-65
2021/01/09 10:19:05;;;;;;;22.52;12.95;;;;;;;-0.07;100.00;102377.16;5039570;28;20056;-65
2021/01/09 10:21:32;;;;;;;23.45;13.57;;;;;;;-0.01;99.81;102374.38;5042504;28;20071;-64
2021/01/09 10:23:59;;;;;;;23.67;13.57;;;;;;;-0.13;100.00;102369.34;5038288;28;20056;-65
2021/01/09 10:26:27;;;;;;;20.65;13.98;;;;;;;0.02;99.91;102369.94;5040168;28;20056;-65
2021/01/09 10:28:53;;;;;;;25.63;13.93;;;;;;;-0.04;100.00;102377.09;5038279;28;20439;-65
2021/01/09 10:31:19;;;;;;;24.90;14.70;;;;;;;0.05;100.00;102370.75;5040854;28;20052;-65
2021/01/09 10:33:45;;;;;;;27.60;14.48;;;;;;;0.23;100.00;102372.13;5039435;28;20383;-64
2021/01/09 10:36:11;;;;;;;22.65;12.43;;;;;;;0.30;100.00;102363.16;5040883;28;20101;-64
2021/01/09 10:38:37;;;;;;;25.10;11.75;;;;;;;0.39;100.00;102362.09;5038634;28;20080;-64
2021/01/09 10:41:03;;;;;;;21.77;12.43;;;;;;;0.51;100.00;102366.25;5039303;28;20053;-65
2021/01/09 10:43:29;;;;;;;19.83;10.50;;;;;;;0.60;100.00;102366.03;5036881;28;20056;-65
2021/01/09 10:45:55;;;;;;;18.88;11.57;;;;;;;0.74;100.00;102356.88;5040418;28;20052;-65
2021/01/09 10:48:21;;;;;;;20.00;10.68;;;;;;;0.83;100.00;102362.00;5038988;28;20111;-65
2021/01/09 10:50:47;;;;;;;15.63;8.93;;;;;;;0.94;100.00;102357.28;5039168;28;20483;-65
2021/01/09 10:53:13;;;;;;;17.90;9.55;;;;;;;1.13;100.00;102355.06;5030239;28;20111;-65
2021/01/09 10:55:40;;;;;;;17.10;9.13;;;;;;;1.23;100.00;102353.06;5040566;28;20045;-64
2021/01/09 10:58:07;;;;;;;14.70;8.65;;;;;;;1.25;100.00;102356.53;5038543;28;20087;-64
2021/01/09 11:00:33;;;;;;;16.63;9.10;;;;;;;1.35;100.00;102350.06;5037820;28;20118;-65
2021/01/09 11:02:59;;;;;;;15.40;9.77;;;;;;;1.51;100.00;102355.00;5040575;28;20088;-65
2021/01/09 11:05:29;;;;;;;20.33;9.13;;;;;;;1.71;100.00;102347.38;5041368;28;20042;-64
2021/01/09 11:07:55;;;;;;;14.38;8.88;;;;;;;1.72;100.00;102343.81;5041108;28;20088;-64
2021/01/09 11:10:21;;;;;;;19.65;9.63;;;;;;;1.72;100.00;102349.13;5040288;28;20052;-65
2021/01/09 11:12:47;;;;;;;16.25;9.20;;;;;;;1.67;99.51;102348.34;5037402;28;20049;-64
2021/01/09 11:15:14;;;;;;;15.75;9.02;;;;;;;1.71;100.00;102349.16;5036930;28;20049;-65
2021/01/09 11:17:40;;;;;;;14.05;8.15;;;;;;;1.71;99.43;102338.53;5034334;28;20068;-65